Terminal Aerodrome Forecast
Issued by NWS Flagstaff, AZ

Home | Current Version | Previous Version | Text Only | Print | Product List | Glossary On
Versions: 1 2 3 4 5 6 7 8 9 10 11 12 13 14
138
FTUS45 KFGZ 201145
TAFINW
TAF
KINW 201145Z 2012/2112 27009KT P6SM FEW040 BKN070
     FM201800 23009KT P6SM BKN040
     FM210100 23009KT 6SM -SHRASN BKN030 BKN060=

USA.gov is the U.S. government's official web portal to all federal, state and local government web resources and services.